This is the latest recevied weather packets stored in our database for station/object EA6AMI-5. If no packets are shown the sender has not sent any weather packets the latest 10 day(s).
| Time | Temp. | Humidity | Pressure | Rain* | Wind** | Luminosity | Snow |
|---|---|---|---|---|---|---|---|
| 1787986443 | 24.44° C | 58% | 1018.4 hPa | 0 mm | - | 108 W/m² | - |
| 1787985903 | 23.33° C | 61% | 1018.4 hPa | 0 mm | - | 95 W/m² | - |
| 1787985364 | 22.78° C | 62% | 1018.1 hPa | 0 mm | - | 83 W/m² | - |
| 1787984824 | 22.78° C | 64% | 1018.2 hPa | 0 mm | - | 72 W/m² | - |
| 1787984284 | 22.78° C | 66% | 1018 hPa | 0 mm | - | 61 W/m² | - |
| 1787983744 | 22.22° C | 67% | 1018 hPa | 0 mm | - | 50 W/m² | - |
| 1787983203 | 21.67° C | 70% | 1018 hPa | 0 mm | - | 39 W/m² | - |
| 1787982844 | 21.67° C | 70% | 1017.9 hPa | 0 mm | - | 32 W/m² | - |
| 1787982303 | 21.11° C | 70% | 1017.7 hPa | 0 mm | - | 23 W/m² | - |
| 1787981764 | 21.11° C | 69% | 1017.7 hPa | 0 mm | - | 15 W/m² | - |
| 1787981223 | 21.11° C | 70% | 1017.6 hPa | 0 mm | - | 8 W/m² | - |
| 1787980684 | 21.11° C | 72% | 1017.5 hPa | 0 mm | - | 4 W/m² | - |
| 1787980143 | 20.56° C | 73% | 1017.2 hPa | 0 mm | - | 1 W/m² | - |
| 1787979603 | 20.56° C | 73% | 1017 hPa | 0 mm | - | 0 W/m² | - |
| 1787979243 | 21.11° C | 73% | 1017.1 hPa | 0 mm | - | 0 W/m² | - |
| 1787978703 | 21.11° C | 72% | 1017.1 hPa | 0 mm | - | 0 W/m² | - |
| 1787978163 | 21.67° C | 71% | 1017.3 hPa | 0 mm | - | 0 W/m² | - |
| 1787977623 | 21.67° C | 70% | 1017.3 hPa | 0 mm | - | 0 W/m² | - |
| 1787977083 | 21.67° C | 72% | 1017.3 hPa | 0 mm | - | 0 W/m² | - |
| 1787976543 | 21.67° C | 72% | 1017.6 hPa | 0 mm | - | 0 W/m² | - |
| 1787976003 | 21.67° C | 72% | 1017.6 hPa | 0 mm | - | 0 W/m² | - |
| 1787975643 | 21.67° C | 72% | 1017.7 hPa | 0 mm | - | 0 W/m² | - |
| 1787975104 | 21.67° C | 71% | 1017.8 hPa | 0 mm | - | 0 W/m² | - |
| 1787974563 | 21.67° C | 72% | 1017.6 hPa | 0 mm | - | 0 W/m² | - |
| 1787974023 | 22.22° C | 71% | 1017.7 hPa | 0 mm | - | 0 W/m² | - |
* Rain latest hour (hover to see other rain measurements)
** Current wind speed in m/s (hover to see current wind gust speed)